sensor_id;sensor_type;location;lat;lon;timestamp;pressure;altitude;pressure_sealevel;temperature;humidity
35806;BME280;21925;44.608;11.580;2023-01-25T00:02:43;102876.06;;;11.64;100.00
35806;BME280;21925;44.608;11.580;2023-01-25T00:05:09;102777.22;;;11.01;100.00
35806;BME280;21925;44.608;11.580;2023-01-25T00:07:35;102816.31;;;11.24;100.00
35806;BME280;21925;44.608;11.580;2023-01-25T00:10:00;102838.94;;;11.35;100.00
35806;BME280;21925;44.608;11.580;2023-01-25T00:12:26;102829.88;;;11.48;100.00
35806;BME280;21925;44.608;11.580;2023-01-25T00:14:52;102804.56;;;11.51;100.00
35806;BME280;21925;44.608;11.580;2023-01-25T00:17:18;102871.63;;;12.22;100.00
35806;BME280;21925;44.608;11.580;2023-01-25T00:19:45;102856.72;;;11.83;100.00
35806;BME280;21925;44.608;11.580;2023-01-25T00:22:11;102863.03;;;11.96;100.00
35806;BME280;21925;44.608;11.580;2023-01-25T00:24:37;102830.41;;;11.50;100.00
35806;BME280;21925;44.608;11.580;2023-01-25T00:27:03;102800.13;;;11.55;100.00
35806;BME280;21925;44.608;11.580;2023-01-25T00:29:30;102837.38;;;12.14;100.00
35806;BME280;21925;44.608;11.580;2023-01-25T00:37:02;102867.75;;;11.51;100.00
35806;BME280;21925;44.608;11.580;2023-01-25T00:39:39;102845.13;;;11.27;100.00
35806;BME280;21925;44.608;11.580;2023-01-25T00:42:14;102830.00;;;11.11;100.00
35806;BME280;21925;44.608;11.580;2023-01-25T00:44:43;102798.78;;;11.07;100.00
35806;BME280;21925;44.608;11.580;2023-01-25T00:47:10;102724.34;;;10.63;100.00
35806;BME280;21925;44.608;11.580;2023-01-25T00:49:38;102739.44;;;10.79;100.00
35806;BME280;21925;44.608;11.580;2023-01-25T00:52:06;102772.97;;;10.76;100.00
35806;BME280;21925;44.608;11.580;2023-01-25T00:54:32;102862.09;;;10.97;100.00
35806;BME280;21925;44.608;11.580;2023-01-25T00:56:58;102779.66;;;10.70;100.00
35806;BME280;21925;44.608;11.580;2023-01-25T00:59:25;102841.69;;;10.66;100.00
35806;BME280;21925;44.608;11.580;2023-01-25T01:01:55;102858.72;;;11.00;100.00
35806;BME280;21925;44.608;11.580;2023-01-25T01:04:21;102819.16;;;10.69;100.00
35806;BME280;21925;44.608;11.580;2023-01-25T01:06:50;102798.72;;;10.62;100.00
35806;BME280;21925;44.608;11.580;2023-01-25T01:09:20;102727.75;;;10.24;100.00
35806;BME280;21925;44.608;11.580;2023-01-25T01:11:46;102857.47;;;11.11;100.00
35806;BME280;21925;44.608;11.580;2023-01-25T01:14:16;102719.44;;;10.60;100.00
35806;BME280;21925;44.608;11.580;2023-01-25T01:16:42;102707.16;;;10.58;100.00
35806;BME280;21925;44.608;11.580;2023-01-25T01:19:08;102827.59;;;10.91;100.00
35806;BME280;21925;44.608;11.580;2023-01-25T01:21:35;102815.50;;;10.92;100.00
35806;BME280;21925;44.608;11.580;2023-01-25T01:24:01;102831.78;;;10.70;100.00
35806;BME280;21925;44.608;11.580;2023-01-25T01:26:27;102807.97;;;10.66;100.00
35806;BME280;21925;44.608;11.580;2023-01-25T01:28:53;102806.88;;;10.48;100.00
35806;BME280;21925;44.608;11.580;2023-01-25T01:31:22;102809.38;;;10.27;100.00
35806;BME280;21925;44.608;11.580;2023-01-25T01:34:00;102806.34;;;10.28;100.00
35806;BME280;21925;44.608;11.580;2023-01-25T01:36:28;102794.50;;;10.32;100.00
35806;BME280;21925;44.608;11.580;2023-01-25T01:38:55;102767.13;;;10.28;100.00
35806;BME280;21925;44.608;11.580;2023-01-25T01:41:21;102801.47;;;10.02;100.00
35806;BME280;21925;44.608;11.580;2023-01-25T01:43:47;102835.94;;;10.49;100.00
35806;BME280;21925;44.608;11.580;2023-01-25T01:49:10;102857.13;;;10.62;100.00
35806;BME280;21925;44.608;11.580;2023-01-25T01:52:01;102852.22;;;10.59;100.00
35806;BME280;21925;44.608;11.580;2023-01-25T01:54:45;102829.78;;;10.76;100.00
35806;BME280;21925;44.608;11.580;2023-01-25T01:57:28;102731.66;;;10.36;100.00
35806;BME280;21925;44.608;11.580;2023-01-25T02:00:04;102844.78;;;10.97;100.00
35806;BME280;21925;44.608;11.580;2023-01-25T02:02:52;102805.94;;;10.90;100.00
35806;BME280;21925;44.608;11.580;2023-01-25T02:05:44;102825.53;;;11.15;100.00
35806;BME280;21925;44.608;11.580;2023-01-25T02:08:13;102850.44;;;11.37;100.00
35806;BME280;21925;44.608;11.580;2023-01-25T02:10:40;102776.28;;;10.41;100.00
35806;BME280;21925;44.608;11.580;2023-01-25T02:13:09;102733.28;;;10.37;100.00
35806;BME280;21925;44.608;11.580;2023-01-25T02:15:44;102827.69;;;11.18;100.00
35806;BME280;21925;44.608;11.580;2023-01-25T02:18:11;102770.84;;;10.73;100.00
35806;BME280;21925;44.608;11.580;2023-01-25T02:20:40;102849.75;;;10.95;100.00
35806;BME280;21925;44.608;11.580;2023-01-25T02:26:03;102826.22;;;10.57;100.00
35806;BME280;21925;44.608;11.580;2023-01-25T02:28:41;102811.94;;;10.41;100.00
35806;BME280;21925;44.608;11.580;2023-01-25T02:31:13;102822.41;;;10.34;100.00
35806;BME280;21925;44.608;11.580;2023-01-25T02:33:39;102817.41;;;10.41;100.00
35806;BME280;21925;44.608;11.580;2023-01-25T02:38:41;102687.88;;;9.52;100.00
35806;BME280;21925;44.608;11.580;2023-01-25T02:41:12;102695.97;;;9.81;100.00
35806;BME280;21925;44.608;11.580;2023-01-25T02:43:42;102825.50;;;10.70;100.00
35806;BME280;21925;44.608;11.580;2023-01-25T02:46:29;102804.66;;;10.69;100.00
35806;BME280;21925;44.608;11.580;2023-01-25T02:48:57;102740.31;;;10.43;100.00
35806;BME280;21925;44.608;11.580;2023-01-25T02:51:26;102817.56;;;11.00;100.00
35806;BME280;21925;44.608;11.580;2023-01-25T02:53:53;102832.75;;;11.11;100.00
35806;BME280;21925;44.608;11.580;2023-01-25T02:56:20;102701.34;;;10.28;100.00
35806;BME280;21925;44.608;11.580;2023-01-25T02:58:47;102777.91;;;10.74;100.00
35806;BME280;21925;44.608;11.580;2023-01-25T03:01:15;102797.22;;;10.69;100.00
35806;BME280;21925;44.608;11.580;2023-01-25T03:03:41;102723.66;;;10.21;100.00
35806;BME280;21925;44.608;11.580;2023-01-25T03:06:07;102780.09;;;10.59;100.00
35806;BME280;21925;44.608;11.580;2023-01-25T03:08:34;102816.13;;;10.71;100.00
35806;BME280;21925;44.608;11.580;2023-01-25T03:11:02;102795.97;;;10.43;100.00
35806;BME280;21925;44.608;11.580;2023-01-25T03:13:30;102735.06;;;9.68;100.00
35806;BME280;21925;44.608;11.580;2023-01-25T03:16:03;102809.59;;;10.30;100.00
35806;BME280;21925;44.608;11.580;2023-01-25T03:18:34;102708.13;;;9.75;100.00
35806;BME280;21925;44.608;11.580;2023-01-25T03:21:09;102817.66;;;10.03;100.00
35806;BME280;21925;44.608;11.580;2023-01-25T03:23:35;102718.34;;;9.88;100.00
35806;BME280;21925;44.608;11.580;2023-01-25T03:26:12;102791.81;;;10.64;100.00
35806;BME280;21925;44.608;11.580;2023-01-25T03:28:53;102751.34;;;10.56;100.00
35806;BME280;21925;44.608;11.580;2023-01-25T03:31:20;102759.19;;;10.63;100.00
35806;BME280;21925;44.608;11.580;2023-01-25T03:33:46;102784.00;;;11.35;100.00
35806;BME280;21925;44.608;11.580;2023-01-25T03:36:15;102735.38;;;10.58;100.00
35806;BME280;21925;44.608;11.580;2023-01-25T03:38:41;102748.19;;;10.49;100.00
35806;BME280;21925;44.608;11.580;2023-01-25T03:41:07;102692.56;;;10.12;100.00
35806;BME280;21925;44.608;11.580;2023-01-25T03:43:34;102730.09;;;10.48;100.00
35806;BME280;21925;44.608;11.580;2023-01-25T03:46:00;102716.56;;;10.20;100.00
35806;BME280;21925;44.608;11.580;2023-01-25T03:48:28;102705.28;;;10.03;100.00
35806;BME280;21925;44.608;11.580;2023-01-25T03:50:56;102755.81;;;10.34;100.00
35806;BME280;21925;44.608;11.580;2023-01-25T03:53:25;102727.53;;;9.97;100.00
35806;BME280;21925;44.608;11.580;2023-01-25T03:58:25;102707.25;;;10.34;100.00
35806;BME280;21925;44.608;11.580;2023-01-25T04:00:54;102775.19;;;10.74;100.00
35806;BME280;21925;44.608;11.580;2023-01-25T04:03:20;102734.28;;;10.59;100.00
35806;BME280;21925;44.608;11.580;2023-01-25T04:05:47;102729.66;;;11.05;100.00
35806;BME280;21925;44.608;11.580;2023-01-25T04:08:14;102628.94;;;10.29;100.00
35806;BME280;21925;44.608;11.580;2023-01-25T04:10:40;102724.19;;;10.73;100.00
35806;BME280;21925;44.608;11.580;2023-01-25T04:13:07;102726.66;;;10.38;100.00
35806;BME280;21925;44.608;11.580;2023-01-25T04:15:34;102641.84;;;9.73;100.00
35806;BME280;21925;44.608;11.580;2023-01-25T04:18:08;102778.31;;;10.68;100.00
35806;BME280;21925;44.608;11.580;2023-01-25T04:20:35;102654.38;;;9.97;100.00
35806;BME280;21925;44.608;11.580;2023-01-25T04:23:02;102731.72;;;10.49;100.00
35806;BME280;21925;44.608;11.580;2023-01-25T04:25:34;102680.50;;;10.27;100.00
35806;BME280;21925;44.608;11.580;2023-01-25T04:28:01;102686.63;;;10.55;100.00
35806;BME280;21925;44.608;11.580;2023-01-25T04:30:27;102782.91;;;11.04;100.00
35806;BME280;21925;44.608;11.580;2023-01-25T04:32:54;102777.16;;;10.87;100.00
35806;BME280;21925;44.608;11.580;2023-01-25T04:35:24;102772.63;;;10.64;100.00
35806;BME280;21925;44.608;11.580;2023-01-25T04:37:54;102648.91;;;10.16;100.00
35806;BME280;21925;44.608;11.580;2023-01-25T04:40:23;102707.00;;;10.68;100.00
35806;BME280;21925;44.608;11.580;2023-01-25T04:42:52;102642.19;;;10.40;100.00
35806;BME280;21925;44.608;11.580;2023-01-25T04:45:18;102727.47;;;10.57;100.00
35806;BME280;21925;44.608;11.580;2023-01-25T04:47:44;102782.28;;;10.75;100.00
35806;BME280;21925;44.608;11.580;2023-01-25T04:50:10;102732.47;;;10.36;100.00
35806;BME280;21925;44.608;11.580;2023-01-25T04:52:36;102740.59;;;10.23;100.00
35806;BME280;21925;44.608;11.580;2023-01-25T04:55:02;102695.41;;;9.84;100.00
35806;BME280;21925;44.608;11.580;2023-01-25T04:57:37;102735.88;;;9.68;100.00
35806;BME280;21925;44.608;11.580;2023-01-25T05:00:03;102782.16;;;10.12;100.00
35806;BME280;21925;44.608;11.580;2023-01-25T05:02:30;102696.59;;;9.96;100.00
35806;BME280;21925;44.608;11.580;2023-01-25T05:04:56;102782.63;;;10.55;100.00
35806;BME280;21925;44.608;11.580;2023-01-25T05:07:23;102780.81;;;10.83;100.00
35806;BME280;21925;44.608;11.580;2023-01-25T05:09:50;102714.84;;;10.56;100.00
35806;BME280;21925;44.608;11.580;2023-01-25T05:12:18;102661.84;;;10.29;100.00
35806;BME280;21925;44.608;11.580;2023-01-25T05:14:58;102665.66;;;10.46;100.00
35806;BME280;21925;44.608;11.580;2023-01-25T05:17:26;102762.81;;;11.09;100.00
35806;BME280;21925;44.608;11.580;2023-01-25T05:19:52;102666.22;;;10.61;100.00
35806;BME280;21925;44.608;11.580;2023-01-25T05:22:21;102685.94;;;10.32;100.00
35806;BME280;21925;44.608;11.580;2023-01-25T05:24:50;102765.78;;;10.80;100.00
35806;BME280;21925;44.608;11.580;2023-01-25T05:27:18;102630.09;;;9.91;100.00
35806;BME280;21925;44.608;11.580;2023-01-25T05:29:54;102676.72;;;10.41;100.00
35806;BME280;21925;44.608;11.580;2023-01-25T05:32:49;102673.34;;;10.31;100.00
35806;BME280;21925;44.608;11.580;2023-01-25T05:35:16;102705.66;;;10.65;100.00
35806;BME280;21925;44.608;11.580;2023-01-25T05:37:43;102643.28;;;10.39;100.00
35806;BME280;21925;44.608;11.580;2023-01-25T05:40:15;102723.50;;;10.95;100.00
35806;BME280;21925;44.608;11.580;2023-01-25T05:42:42;102663.94;;;10.82;100.00
35806;BME280;21925;44.608;11.580;2023-01-25T05:45:15;102619.34;;;10.44;100.00
35806;BME280;21925;44.608;11.580;2023-01-25T05:47:44;102659.97;;;10.88;100.00
35806;BME280;21925;44.608;11.580;2023-01-25T05:50:10;102755.44;;;11.49;100.00
35806;BME280;21925;44.608;11.580;2023-01-25T05:52:56;102728.31;;;11.16;100.00
35806;BME280;21925;44.608;11.580;2023-01-25T05:55:22;102747.31;;;10.99;100.00
35806;BME280;21925;44.608;11.580;2023-01-25T05:57:54;102749.56;;;10.97;100.00
35806;BME280;21925;44.608;11.580;2023-01-25T06:00:23;102658.09;;;10.38;100.00
35806;BME280;21925;44.608;11.580;2023-01-25T06:02:50;102621.41;;;10.21;100.00
35806;BME280;21925;44.608;11.580;2023-01-25T06:05:21;102756.31;;;11.31;100.00
35806;BME280;21925;44.608;11.580;2023-01-25T06:07:51;102758.53;;;11.16;100.00
35806;BME280;21925;44.608;11.580;2023-01-25T06:10:24;102655.16;;;10.66;100.00
35806;BME280;21925;44.608;11.580;2023-01-25T06:12:57;102756.81;;;11.20;100.00
35806;BME280;21925;44.608;11.580;2023-01-25T06:15:28;102753.91;;;10.66;100.00
35806;BME280;21925;44.608;11.580;2023-01-25T06:18:13;102697.41;;;10.15;100.00
35806;BME280;21925;44.608;11.580;2023-01-25T06:21:18;102757.31;;;10.77;100.00
35806;BME280;21925;44.608;11.580;2023-01-25T06:23:44;102668.03;;;10.52;100.00
35806;BME280;21925;44.608;11.580;2023-01-25T06:26:11;102667.91;;;10.89;100.00
35806;BME280;21925;44.608;11.580;2023-01-25T06:28:38;102743.13;;;11.47;100.00
35806;BME280;21925;44.608;11.580;2023-01-25T06:31:06;102715.34;;;11.35;100.00
35806;BME280;21925;44.608;11.580;2023-01-25T06:33:32;102675.44;;;10.97;100.00
35806;BME280;21925;44.608;11.580;2023-01-25T06:36:03;102662.84;;;10.96;100.00
35806;BME280;21925;44.608;11.580;2023-01-25T06:38:30;102699.03;;;10.66;100.00
35806;BME280;21925;44.608;11.580;2023-01-25T06:41:04;102615.13;;;9.65;100.00
35806;BME280;21925;44.608;11.580;2023-01-25T06:43:33;102628.44;;;9.53;100.00
35806;BME280;21925;44.608;11.580;2023-01-25T06:46:04;102679.09;;;10.47;100.00
35806;BME280;21925;44.608;11.580;2023-01-25T06:48:30;102637.81;;;10.39;100.00
35806;BME280;21925;44.608;11.580;2023-01-25T06:50:59;102656.50;;;10.19;100.00
35806;BME280;21925;44.608;11.580;2023-01-25T06:53:30;102712.09;;;10.24;100.00
35806;BME280;21925;44.608;11.580;2023-01-25T06:55:57;102611.97;;;9.35;100.00
35806;BME280;21925;44.608;11.580;2023-01-25T06:58:24;102661.91;;;9.50;100.00
35806;BME280;21925;44.608;11.580;2023-01-25T07:00:53;102670.88;;;9.32;100.00
35806;BME280;21925;44.608;11.580;2023-01-25T07:03:19;102701.25;;;9.96;100.00
35806;BME280;21925;44.608;11.580;2023-01-25T07:05:45;102751.56;;;10.05;100.00
35806;BME280;21925;44.608;11.580;2023-01-25T07:08:11;102741.13;;;10.25;100.00
35806;BME280;21925;44.608;11.580;2023-01-25T07:10:37;102628.50;;;9.66;100.00
35806;BME280;21925;44.608;11.580;2023-01-25T07:13:03;102616.22;;;9.64;100.00
35806;BME280;21925;44.608;11.580;2023-01-25T07:15:28;102746.41;;;10.22;100.00
35806;BME280;21925;44.608;11.580;2023-01-25T07:17:54;102703.50;;;10.12;100.00
35806;BME280;21925;44.608;11.580;2023-01-25T07:20:20;102697.69;;;9.95;100.00
35806;BME280;21925;44.608;11.580;2023-01-25T07:22:46;102744.09;;;10.10;100.00
35806;BME280;21925;44.608;11.580;2023-01-25T07:25:13;102698.63;;;9.86;100.00
35806;BME280;21925;44.608;11.580;2023-01-25T07:27:39;102680.41;;;10.00;100.00
35806;BME280;21925;44.608;11.580;2023-01-25T07:30:05;102663.19;;;9.94;100.00
35806;BME280;21925;44.608;11.580;2023-01-25T07:32:31;102632.28;;;9.89;100.00
35806;BME280;21925;44.608;11.580;2023-01-25T07:34:57;102647.00;;;9.98;100.00
35806;BME280;21925;44.608;11.580;2023-01-25T07:37:23;102657.19;;;9.74;100.00
35806;BME280;21925;44.608;11.580;2023-01-25T07:39:52;102675.81;;;9.72;100.00
35806;BME280;21925;44.608;11.580;2023-01-25T07:42:18;102738.63;;;9.87;100.00
35806;BME280;21925;44.608;11.580;2023-01-25T07:45:05;102639.53;;;9.43;100.00
35806;BME280;21925;44.608;11.580;2023-01-25T07:47:31;102642.50;;;9.47;100.00
35806;BME280;21925;44.608;11.580;2023-01-25T07:49:57;102660.34;;;9.62;100.00
35806;BME280;21925;44.608;11.580;2023-01-25T07:52:25;102653.44;;;9.47;100.00
35806;BME280;21925;44.608;11.580;2023-01-25T07:54:54;102679.00;;;9.60;100.00
35806;BME280;21925;44.608;11.580;2023-01-25T07:57:20;102645.28;;;9.42;100.00
35806;BME280;21925;44.608;11.580;2023-01-25T07:59:46;102685.22;;;9.66;100.00
35806;BME280;21925;44.608;11.580;2023-01-25T08:02:12;102577.59;;;9.05;100.00
35806;BME280;21925;44.608;11.580;2023-01-25T08:04:38;102579.31;;;9.01;100.00
35806;BME280;21925;44.608;11.580;2023-01-25T08:07:04;102663.06;;;9.44;100.00
35806;BME280;21925;44.608;11.580;2023-01-25T08:09:30;102571.91;;;9.02;100.00
35806;BME280;21925;44.608;11.580;2023-01-25T08:11:56;102571.63;;;9.03;100.00
35806;BME280;21925;44.608;11.580;2023-01-25T08:14:22;102656.97;;;9.70;100.00
35806;BME280;21925;44.608;11.580;2023-01-25T08:16:52;102574.38;;;9.03;100.00
35806;BME280;21925;44.608;11.580;2023-01-25T08:19:18;102662.84;;;10.01;100.00
35806;BME280;21925;44.608;11.580;2023-01-25T08:21:47;102595.44;;;9.63;100.00
35806;BME280;21925;44.608;11.580;2023-01-25T08:24:13;102701.78;;;10.34;100.00
35806;BME280;21925;44.608;11.580;2023-01-25T08:26:39;102631.56;;;10.02;100.00
35806;BME280;21925;44.608;11.580;2023-01-25T08:29:05;102705.34;;;10.67;100.00
35806;BME280;21925;44.608;11.580;2023-01-25T08:31:35;102667.84;;;10.31;100.00
35806;BME280;21925;44.608;11.580;2023-01-25T08:34:02;102680.50;;;10.77;100.00
35806;BME280;21925;44.608;11.580;2023-01-25T08:36:28;102699.50;;;10.73;100.00
35806;BME280;21925;44.608;11.580;2023-01-25T08:39:00;102637.00;;;10.38;100.00
35806;BME280;21925;44.608;11.580;2023-01-25T08:41:34;102677.09;;;10.66;100.00
35806;BME280;21925;44.608;11.580;2023-01-25T08:44:00;102668.97;;;10.61;100.00
35806;BME280;21925;44.608;11.580;2023-01-25T08:46:29;102582.06;;;10.12;100.00
35806;BME280;21925;44.608;11.580;2023-01-25T08:48:59;102630.44;;;10.66;100.00
35806;BME280;21925;44.608;11.580;2023-01-25T08:51:26;102621.81;;;10.59;100.00
35806;BME280;21925;44.608;11.580;2023-01-25T08:53:52;102642.19;;;10.85;100.00
35806;BME280;21925;44.608;11.580;2023-01-25T08:56:18;102671.78;;;11.02;100.00
35806;BME280;21925;44.608;11.580;2023-01-25T08:58:46;102694.38;;;11.12;100.00
35806;BME280;21925;44.608;11.580;2023-01-25T09:01:14;102730.88;;;11.26;100.00
35806;BME280;21925;44.608;11.580;2023-01-25T09:03:43;102674.53;;;10.88;100.00
35806;BME280;21925;44.608;11.580;2023-01-25T09:06:10;102649.06;;;10.69;100.00
35806;BME280;21925;44.608;11.580;2023-01-25T09:08:36;102714.59;;;11.16;100.00
35806;BME280;21925;44.608;11.580;2023-01-25T09:11:08;102677.50;;;11.05;100.00
35806;BME280;21925;44.608;11.580;2023-01-25T09:13:35;102693.38;;;11.35;100.00
35806;BME280;21925;44.608;11.580;2023-01-25T09:16:06;102704.44;;;11.43;100.00
35806;BME280;21925;44.608;11.580;2023-01-25T09:18:34;102708.41;;;11.51;100.00
35806;BME280;21925;44.608;11.580;2023-01-25T09:21:09;102706.50;;;11.24;100.00
35806;BME280;21925;44.608;11.580;2023-01-25T09:23:36;102687.88;;;11.35;100.00
35806;BME280;21925;44.608;11.580;2023-01-25T09:26:02;102671.28;;;11.13;100.00
35806;BME280;21925;44.608;11.580;2023-01-25T09:28:29;102687.97;;;11.16;100.00
35806;BME280;21925;44.608;11.580;2023-01-25T09:31:01;102694.69;;;11.37;100.00
35806;BME280;21925;44.608;11.580;2023-01-25T09:33:54;102689.09;;;11.56;100.00
35806;BME280;21925;44.608;11.580;2023-01-25T09:36:21;102619.94;;;11.00;100.00
35806;BME280;21925;44.608;11.580;2023-01-25T09:38:47;102692.38;;;11.58;100.00
35806;BME280;21925;44.608;11.580;2023-01-25T09:46:52;102640.16;;;11.31;100.00
35806;BME280;21925;44.608;11.580;2023-01-25T09:49:48;102693.22;;;11.93;100.00
35806;BME280;21925;44.608;11.580;2023-01-25T09:52:27;102690.97;;;11.95;100.00
35806;BME280;21925;44.608;11.580;2023-01-25T09:54:57;102634.56;;;11.63;100.00
35806;BME280;21925;44.608;11.580;2023-01-25T09:57:35;102678.56;;;12.20;100.00
35806;BME280;21925;44.608;11.580;2023-01-25T10:00:12;102657.38;;;12.20;100.00
35806;BME280;21925;44.608;11.580;2023-01-25T10:05:39;102669.38;;;12.02;100.00
35806;BME280;21925;44.608;11.580;2023-01-25T10:11:25;102647.53;;;12.19;100.00
35806;BME280;21925;44.608;11.580;2023-01-25T10:13:53;102649.75;;;12.17;99.31
35806;BME280;21925;44.608;11.580;2023-01-25T10:24:31;102642.88;;;12.80;96.67
35806;BME280;21925;44.608;11.580;2023-01-25T10:29:38;102642.75;;;13.71;92.88
35806;BME280;21925;44.608;11.580;2023-01-25T10:32:18;102635.28;;;13.97;91.02
35806;BME280;21925;44.608;11.580;2023-01-25T10:34:47;102612.91;;;14.24;88.24
35806;BME280;21925;44.608;11.580;2023-01-25T10:37:17;102612.09;;;14.15;87.89
35806;BME280;21925;44.608;11.580;2023-01-25T10:40:13;102590.31;;;14.47;87.66
35806;BME280;21925;44.608;11.580;2023-01-25T10:42:49;102599.13;;;14.33;84.36
35806;BME280;21925;44.608;11.580;2023-01-25T10:45:17;102610.66;;;14.26;82.32
35806;BME280;21925;44.608;11.580;2023-01-25T10:47:49;102618.09;;;14.00;83.09
35806;BME280;21925;44.608;11.580;2023-01-25T11:11:36;102570.56;;;13.61;90.41
35806;BME280;21925;44.608;11.580;2023-01-25T11:17:43;102571.72;;;13.85;90.18
35806;BME280;21925;44.608;11.580;2023-01-25T11:55:44;102508.13;;;15.39;82.28
35806;BME280;21925;44.608;11.580;2023-01-25T11:58:39;102497.91;;;15.11;78.18
35806;BME280;21925;44.608;11.580;2023-01-25T12:01:24;102485.50;;;15.25;86.58
35806;BME280;21925;44.608;11.580;2023-01-25T12:23:25;102451.19;;;14.98;83.19
35806;BME280;21925;44.608;11.580;2023-01-25T12:26:18;102403.47;;;14.89;84.22
35806;BME280;21925;44.608;11.580;2023-01-25T12:29:16;102441.63;;;15.15;85.91
35806;BME280;21925;44.608;11.580;2023-01-25T12:34:43;102453.63;;;15.19;83.68
35806;BME280;21925;44.608;11.580;2023-01-25T12:37:30;102456.22;;;15.24;83.77
35806;BME280;21925;44.608;11.580;2023-01-25T12:40:01;102445.41;;;15.11;81.49
35806;BME280;21925;44.608;11.580;2023-01-25T12:45:17;102409.63;;;15.14;81.08
35806;BME280;21925;44.608;11.580;2023-01-25T12:50:55;102437.28;;;15.67;79.91
35806;BME280;21925;44.608;11.580;2023-01-25T12:54:01;102438.38;;;15.42;79.98
35806;BME280;21925;44.608;11.580;2023-01-25T12:56:39;102424.06;;;15.40;74.61
35806;BME280;21925;44.608;11.580;2023-01-25T12:59:28;102434.56;;;15.79;75.75
35806;BME280;21925;44.608;11.580;2023-01-25T13:07:33;102429.50;;;15.49;71.77
35806;BME280;21925;44.608;11.580;2023-01-25T13:13:02;102406.44;;;15.65;72.98
35806;BME280;21925;44.608;11.580;2023-01-25T13:15:44;102416.38;;;15.78;72.07
35806;BME280;21925;44.608;11.580;2023-01-25T13:21:00;102380.75;;;15.77;71.36
35806;BME280;21925;44.608;11.580;2023-01-25T13:23:41;102313.34;;;15.05;67.56
35806;BME280;21925;44.608;11.580;2023-01-25T13:28:57;102348.53;;;15.48;69.26
35806;BME280;21925;44.608;11.580;2023-01-25T13:37:22;102390.31;;;15.79;72.26
35806;BME280;21925;44.608;11.580;2023-01-25T13:40:47;102405.56;;;15.97;74.46
35806;BME280;21925;44.608;11.580;2023-01-25T13:43:31;102336.56;;;15.56;75.97
35806;BME280;21925;44.608;11.580;2023-01-25T13:45:57;102316.94;;;15.37;74.73
35806;BME280;21925;44.608;11.580;2023-01-25T13:48:34;102375.19;;;15.65;80.26
35806;BME280;21925;44.608;11.580;2023-01-25T13:51:10;102390.94;;;15.52;76.64
35806;BME280;21925;44.608;11.580;2023-01-25T13:53:54;102388.69;;;15.34;80.59
35806;BME280;21925;44.608;11.580;2023-01-25T13:56:32;102353.75;;;14.48;77.90
35806;BME280;21925;44.608;11.580;2023-01-25T13:58:59;102298.63;;;14.11;84.74
35806;BME280;21925;44.608;11.580;2023-01-25T14:01:31;102363.50;;;14.08;89.51
35806;BME280;21925;44.608;11.580;2023-01-25T14:04:04;102357.59;;;13.27;93.70
35806;BME280;21925;44.608;11.580;2023-01-25T14:06:37;102373.97;;;13.32;98.63
35806;BME280;21925;44.608;11.580;2023-01-25T14:09:11;102316.94;;;12.73;98.52
35806;BME280;21925;44.608;11.580;2023-01-25T14:11:52;102333.78;;;13.05;99.57
35806;BME280;21925;44.608;11.580;2023-01-25T14:14:25;102288.78;;;12.93;100.00
35806;BME280;21925;44.608;11.580;2023-01-25T14:17:16;102368.00;;;13.75;98.78
35806;BME280;21925;44.608;11.580;2023-01-25T14:19:47;102378.78;;;13.52;100.00
35806;BME280;21925;44.608;11.580;2023-01-25T14:25:13;102336.81;;;13.46;96.72
35806;BME280;21925;44.608;11.580;2023-01-25T14:32:48;102279.69;;;13.09;96.75
35806;BME280;21925;44.608;11.580;2023-01-25T14:35:38;102363.88;;;13.52;97.95
35806;BME280;21925;44.608;11.580;2023-01-25T14:40:48;102332.88;;;13.64;99.86
35806;BME280;21925;44.608;11.580;2023-01-25T14:43:16;102308.91;;;13.56;95.72
35806;BME280;21925;44.608;11.580;2023-01-25T14:45:42;102321.63;;;13.23;95.40
35806;BME280;21925;44.608;11.580;2023-01-25T14:48:34;102360.56;;;13.67;95.38
35806;BME280;21925;44.608;11.580;2023-01-25T14:53:48;102359.13;;;14.07;93.74
35806;BME280;21925;44.608;11.580;2023-01-25T14:58:53;102339.81;;;13.70;92.33
35806;BME280;21925;44.608;11.580;2023-01-25T15:01:30;102342.16;;;13.43;91.86
35806;BME280;21925;44.608;11.580;2023-01-25T15:03:57;102270.28;;;12.85;92.06
35806;BME280;21925;44.608;11.580;2023-01-25T15:06:23;102350.00;;;13.24;94.01
35806;BME280;21925;44.608;11.580;2023-01-25T15:08:49;102268.00;;;13.21;95.31
35806;BME280;21925;44.608;11.580;2023-01-25T15:11:28;102330.06;;;13.01;97.42
35806;BME280;21925;44.608;11.580;2023-01-25T15:14:03;102212.00;;;11.98;99.89
35806;BME280;21925;44.608;11.580;2023-01-25T15:16:38;102256.53;;;12.17;100.00
35806;BME280;21925;44.608;11.580;2023-01-25T15:19:23;102255.38;;;12.01;100.00
35806;BME280;21925;44.608;11.580;2023-01-25T15:21:56;102220.66;;;11.67;100.00
35806;BME280;21925;44.608;11.580;2023-01-25T15:24:23;102289.53;;;12.26;100.00
35806;BME280;21925;44.608;11.580;2023-01-25T15:26:51;102311.03;;;12.15;100.00
35806;BME280;21925;44.608;11.580;2023-01-25T15:29:24;102263.22;;;11.78;100.00
35806;BME280;21925;44.608;11.580;2023-01-25T15:31:56;102244.00;;;11.78;100.00
35806;BME280;21925;44.608;11.580;2023-01-25T15:34:27;102276.31;;;11.81;100.00
35806;BME280;21925;44.608;11.580;2023-01-25T15:36:59;102339.88;;;12.35;100.00